• Join FlightAware (Why Join?)
  • Login
  • US Flag 
01:48AM EDT


 

Airport Tracker/Info


-or-


 

Live Flight TrackerFlight Track Log ✈ SWA2855 ✈ 08-Sep-2013 ✈ KRDU - KMDW

Flight Track Log - Related Links

Times and Time Zones

All times are in EDT time to prevent confusion due to time zone crossing. See the SWA2855 flight status page for this flight to view local times or setup timezone preferences in your user account.

Time Position Orientation Groundspeed Altitude Reporting Facility
EDT Latitude Longitude Course Direction KTS MPH feet Rate Location/Type
12:16PM 35.8583 -78.8083 219° Southwest 161 185 1,100  Level Washington Center
12:17PM 35.8411 -78.8256 219° Southwest 165 190 2,000 2,340 Climbing Washington Center
12:18PM 35.8372 -78.8919 266° West 234 269 4,700 2,940 Climbing Washington Center
12:19PM 35.9092 -79.0106 307° West 297 342 9,800 2,820 Climbing Washington Center
12:20PM 35.9567 -79.0997 303° West 302 348 12,100 2,520 Climbing Washington Center
12:21PM 36.0078 -79.2022 302° West 337 388 14,900 2,820 Climbing Washington Center
12:22PM 36.0525 -79.3044 298° West 368 423 17,800 2,520 Climbing Washington Center
12:23PM 36.1461 -79.3808 327° Northwest 359 413 20,000 1,080 Climbing Washington Center
12:24PM 36.2425 -79.4369 335° Northwest 366 421 20,000 300 Level Washington Center
12:25PM 36.3317 -79.5136 325° Northwest 384 442 20,700 1,320 Climbing Washington Center
12:26PM 36.4128 -79.5900 323° Northwest 396 456 22,800 2,460 Climbing Washington Center
12:27PM 36.5161 -79.6806 325° Northwest 406 467 25,800 1,620 Climbing Washington Center
12:28PM 36.6003 -79.7756 318° Northwest 411 473 26,000 60 Climbing Washington Center
12:29PM 36.6628 -79.8981 302° West 411 473 26,000  Level Washington Center
12:30PM 36.7272 -80.0208 303° West 416 479 26,100 1,500 Climbing Washington Center
12:32PM 36.8222 -80.2036 303° West 405 466 30,000 1,440 Climbing Atlanta Center
12:33PM 36.8886 -80.3353 302° West 400 460 30,000  Level Atlanta Center
12:34PM 36.9506 -80.4519 304° West 400 460 30,000  Level Atlanta Center
12:35PM 37.0103 -80.5739 302° West 400 460 30,000 660 Level Atlanta Center
12:37PM 37.1200 -80.7403 310° West 396 456 31,800 720 Climbing Indianapolis Center
12:38PM 37.2094 -80.8119 327° Northwest 392 451 32,000 60 Climbing Indianapolis Center
12:39PM 37.2983 -80.8856 327° Northwest 392 451 32,000  Level Indianapolis Center
12:40PM 37.3947 -80.9894 319° Northwest 390 449 32,000  Level Indianapolis Center
12:41PM 37.4758 -81.0775 319° Northwest 394 453 32,000  Level Indianapolis Center
12:42PM 37.5569 -81.1650 319° Northwest 393 452 32,000  Level Indianapolis Center
12:43PM 37.6367 -81.2542 318° Northwest 393 452 32,000  Level Indianapolis Center
12:44PM 37.7328 -81.3597 319° Northwest 393 452 32,000  Level Indianapolis Center
12:45PM 37.8122 -81.4486 319° Northwest 392 451 32,000  Level Indianapolis Center
12:46PM 37.8931 -81.5358 320° Northwest 395 455 32,000  Level Indianapolis Center
12:47PM 37.9750 -81.6292 318° Northwest 395 455 32,000  Level Indianapolis Center
12:48PM 38.0569 -81.7200 319° Northwest 392 451 32,000  Level Indianapolis Center
12:49PM 38.1558 -81.8319 318° Northwest 393 452 32,000  Level Indianapolis Center
12:50PM 38.2394 -81.9253 319° Northwest 396 456 32,000  Level Indianapolis Center
12:51PM 38.3211 -82.0186 318° Northwest 394 453 32,000  Level Indianapolis Center
12:52PM 38.4042 -82.1131 318° Northwest 397 457 32,000  Level Indianapolis Center
12:53PM 38.4875 -82.2064 319° Northwest 396 456 32,000  Level Indianapolis Center
12:54PM 38.5700 -82.3017 318° Northwest 397 457 32,000  Level Indianapolis Center
12:55PM 38.6525 -82.3956 318° Northwest 395 455 32,000  Level Indianapolis Center
12:56PM 38.7347 -82.4911 318° Northwest 397 457 32,000  Level Indianapolis Center
12:57PM 38.8331 -82.6031 318° Northwest 394 453 32,000  Level Indianapolis Center
12:58PM 38.9153 -82.6978 318° Northwest 396 456 32,000  Level Indianapolis Center
12:59PM 38.9969 -82.7944 317° Northwest 397 457 32,000  Level Indianapolis Center
01:00PM 39.0789 -82.8878 319° Northwest 393 452 32,000  Level Indianapolis Center
01:01PM 39.1600 -82.9836 318° Northwest 395 455 32,000  Level Indianapolis Center
01:02PM 39.2444 -83.0806 318° Northwest 397 457 32,000  Level Indianapolis Center
01:03PM 39.3264 -83.1767 318° Northwest 397 457 32,000  Level Indianapolis Center
01:04PM 39.4225 -83.2917 317° Northwest 393 452 32,000  Level Indianapolis Center
01:06PM 39.5047 -83.3875 318° Northwest 396 456 32,000  Level Indianapolis Center
01:07PM 39.5858 -83.4844 317° Northwest 395 455 32,000  Level Indianapolis Center
01:08PM 39.6658 -83.5831 317° Northwest 393 452 32,000  Level Indianapolis Center
01:09PM 39.7492 -83.6822 318° Northwest 398 458 32,000  Level Indianapolis Center
01:10PM 39.8328 -83.7794 318° Northwest 398 458 32,000  Level Indianapolis Center
01:11PM 39.9147 -83.8781 317° Northwest 399 459 32,000  Level Indianapolis Center
01:12PM 39.9964 -83.9753 318° Northwest 397 457 32,000  Level Indianapolis Center
01:13PM 40.0775 -84.0731 317° Northwest 397 457 32,000  Level Indianapolis Center
01:14PM 40.1742 -84.1908 317° Northwest 395 455 32,000  Level Indianapolis Center
01:15PM 40.2547 -84.2886 317° Northwest 396 456 32,000 -180 Level Indianapolis Center
01:16PM 40.3344 -84.3864 317° Northwest 394 453 31,700 -720 Descending Indianapolis Center
01:17PM 40.4139 -84.4836 317° Northwest 392 451 30,600 -840 Descending Indianapolis Center
01:18PM 40.4933 -84.5814 317° Northwest 393 452 30,000 -300 Descending Indianapolis Center
01:19PM 40.5733 -84.6800 317° Northwest 393 452 30,000  Level Indianapolis Center
01:20PM 40.6675 -84.7986 316° Northwest 392 451 30,000  Level Indianapolis Center
01:21PM 40.7083 -84.8464 318° Northwest 393 452 30,000  Level Chicago Center
01:22PM 40.7869 -84.9472 316° Northwest 394 453 30,000  Level Chicago Center
01:23PM 40.8606 -85.0556 312° West 394 453 30,000  Level Chicago Center
01:24PM 40.9358 -85.1639 313° West 398 458 30,000  Level Chicago Center
01:25PM 41.0097 -85.2706 313° West 395 455 30,000 -780 Level Chicago Center
01:26PM 41.0811 -85.3733 313° West 382 440 28,500 -1,920 Descending Chicago Center
01:27PM 41.1617 -85.4944 311° West 367 422 26,100 -2,160 Descending Chicago Center
01:28PM 41.2286 -85.5925 312° West 360 414 24,100 -2,160 Descending Chicago Center
01:29PM 41.2822 -85.7067 302° West 382 440 21,700 -1,800 Descending Chicago Center
01:30PM 41.3269 -85.8328 295° West 378 435 20,400 -1,620 Descending Chicago Center
01:31PM 41.3700 -85.9544 295° West 367 422 18,400 -1,980 Descending Chicago Center
01:32PM 41.4114 -86.0767 294° West 362 417 16,400 -1,920 Descending Chicago Center
01:33PM 41.4525 -86.1936 295° West 352 405 14,400 -2,160 Descending Chicago Center
01:34PM 41.5008 -86.3331 295° West 347 399 11,900 -1,800 Descending Chicago Center
01:35PM 41.5222 -86.4500 284° West 334 384 10,700 -960 Descending Chicago Center
01:36PM 41.5219 -86.5683 270° West 324 373 10,000 -360 Descending Chicago Center
01:37PM 41.5208 -86.6861 269° West 320 368 10,000  Level Chicago Center
01:38PM 41.5192 -86.8000 269° West 312 359 10,000 -420 Level Chicago Center
01:39PM 41.5186 -86.9286 270° West 296 341 9,200 -1,140 Descending Chicago Center
01:40PM 41.5167 -87.0300 269° West 278 320 7,700 -1,440 Descending Chicago Center
01:41PM 41.5156 -87.1317 269° West 276 318 6,300 -840 Descending Chicago Center
01:42PM 41.5161 -87.2322 270° West 272 313 6,000 -180 Descending Chicago Center
01:43PM 41.5144 -87.3322 269° West 271 312 6,000  Level Chicago Center
01:44PM 41.5386 -87.4464 286° West 269 310 6,000 -300 Level Chicago Center
01:45PM 41.5608 -87.5394 288° West 267 307 5,400 -780 Descending Chicago Center
01:46PM 41.5836 -87.6344 288° West 268 308 4,400 -780 Descending Chicago Center
01:47PM 41.6203 -87.7183 300° West 266 306 3,800 -600 Descending Chicago Center
01:48PM 41.6547 -87.7894 303° West 246 283 3,200 -660 Descending Chicago Center
01:49PM 41.6883 -87.8614 302° West 214 246 2,500 -600 Descending Chicago Center
01:51PM 41.7269 -87.8264 34° Northeast 190 219 2,000 -600 Descending Chicago Center
01:52PM 41.7572 -87.7878 44° Northeast 170 196 1,300 -540 Descending Chicago Center
01:53PM 41.7831 -87.7553 43° Northeast 161 185 1,000 -300 Descending Chicago Center